VQPR

Details ICAO VQPR (PBH)
Name Paro International Airport
Region Bhutan
Timezone Asia/Thimphu (UTC+6.0)
Plans Departing 716
Arriving 1511
Stats Elevation 7,364 ft / 2,245 m (AMSL)
Location 27.403300° 89.424700°
Runways 1
Magnetic Variation 0.257° E
Sunrise 2021-03-08 00:21:03 UTC / 2021-03-08 06:21:03 Local
Sunset 2021-03-08 12:08:06 UTC / 2021-03-08 18:08:06 Local
Advertisement - Login to hide

Runways

ID Width Length Bearing (true/mag) Surface Threshold Overrun Markings Lighting
15 98 ft / 30 m 7,451 ft / 2,271 m 150.44° / 150.18° ASPHALT 525 ft / 160 m 0 ft / 0 m PREC-APP
33 98 ft / 30 m 7,451 ft / 2,271 m 330.44° / 330.19° ASPHALT 394 ft / 120 m 0 ft / 0 m PREC-APP

Map

Weather


0- 5 10 15 20 25 30 35+ Temperature / °C

Clouds and Precipitation
Forecast for 2021-03-08 12:00 UTC. Updated 3 hours ago

Ground ~20,000 ft ~40,000 ft Winds

METAR

VQPR 081100Z 15011KT 8000 FEW020 BKN060 15/01 Q1019

TAF

Not found

Frequencies

Tower 120.30 MHz Paro Tower
Warning: Do not use this data for real-world aviation or navigation. No guarantee of current accuracy is given.